createdAt,value
2023-05-15T00:00:00.633Z,61.71
2023-05-15T00:01:00.516Z,62.17
2023-05-15T00:02:00.519Z,62.17
2023-05-15T00:03:00.688Z,62.17
2023-05-15T00:04:00.516Z,62.17
2023-05-15T00:05:00.664Z,62.17
2023-05-15T00:06:00.562Z,62.21
2023-05-15T00:07:00.545Z,62.21
2023-05-15T00:08:00.584Z,62.21
2023-05-15T00:09:00.668Z,62.21
2023-05-15T00:10:00.794Z,62.21
2023-05-15T00:11:02.017Z,62.45
2023-05-15T00:12:00.513Z,62.45
2023-05-15T00:13:00.554Z,62.45
2023-05-15T00:14:00.519Z,62.45
2023-05-15T00:15:00.572Z,62.45
2023-05-15T00:16:00.560Z,62.67
2023-05-15T00:17:00.585Z,62.67
2023-05-15T00:18:00.570Z,62.67
2023-05-15T00:19:00.569Z,62.67
2023-05-15T00:20:00.582Z,62.67
2023-05-15T00:21:00.679Z,63.06
2023-05-15T00:22:00.561Z,63.06
2023-05-15T00:23:00.520Z,63.06
2023-05-15T00:24:00.566Z,63.06
2023-05-15T00:25:00.513Z,63.06
2023-05-15T00:26:00.550Z,63.14
2023-05-15T00:27:00.577Z,63.14
2023-05-15T00:28:00.548Z,63.14
2023-05-15T00:29:00.531Z,63.14
2023-05-15T00:30:00.579Z,63.14
2023-05-15T00:31:00.604Z,63.44
2023-05-15T00:32:00.585Z,63.44
2023-05-15T00:33:00.602Z,63.44
2023-05-15T00:34:00.523Z,63.44
2023-05-15T00:35:00.573Z,63.44
2023-05-15T00:36:00.552Z,63.43
2023-05-15T00:37:00.530Z,63.43
2023-05-15T00:38:00.556Z,63.43
2023-05-15T00:39:00.591Z,63.43
2023-05-15T00:40:00.529Z,63.43
2023-05-15T00:41:00.882Z,63.83
2023-05-15T00:42:02.365Z,63.83
2023-05-15T00:43:00.980Z,63.83
2023-05-15T00:44:01.134Z,63.83
2023-05-15T00:45:01.266Z,63.83
2023-05-15T00:46:01.256Z,64.51
2023-05-15T00:47:01.595Z,64.51
2023-05-15T00:48:00.595Z,64.51
2023-05-15T00:49:02.061Z,64.51
2023-05-15T00:50:00.902Z,64.51
2023-05-15T00:51:00.576Z,64.63
2023-05-15T00:52:00.616Z,64.63
2023-05-15T00:53:00.736Z,64.63
2023-05-15T00:54:01.252Z,64.63
2023-05-15T00:55:00.558Z,64.63
2023-05-15T00:56:01.668Z,64.97
2023-05-15T00:57:00.757Z,64.97
2023-05-15T00:58:01.292Z,64.97
2023-05-15T00:59:02.027Z,64.97
2023-05-15T01:00:01.062Z,64.97
2023-05-15T01:01:00.608Z,65.33
2023-05-15T01:02:00.633Z,65.33
2023-05-15T01:03:00.649Z,65.33
2023-05-15T01:04:01.158Z,65.33
2023-05-15T01:05:00.575Z,65.33
2023-05-15T01:06:00.596Z,65.48
2023-05-15T01:07:00.525Z,65.48
2023-05-15T01:08:05.949Z,65.48
2023-05-15T01:09:01.605Z,65.48
2023-05-15T01:10:02.390Z,65.48
2023-05-15T01:11:01.440Z,65.52
2023-05-15T01:12:01.249Z,65.52
2023-05-15T01:13:01.380Z,65.52
2023-05-15T01:14:02.437Z,65.52
2023-05-15T01:15:00.649Z,65.52
2023-05-15T01:16:00.648Z,65.72
2023-05-15T01:17:00.566Z,65.72
2023-05-15T01:18:00.721Z,65.72
2023-05-15T01:19:00.983Z,65.72
2023-05-15T01:20:01.975Z,65.72
2023-05-15T01:21:00.534Z,65.78
2023-05-15T01:22:10.380Z,65.78
2023-05-15T01:23:10.389Z,65.78
2023-05-15T01:24:10.405Z,65.78
2023-05-15T01:25:10.419Z,65.93
2023-05-15T01:26:10.379Z,65.93
2023-05-15T01:27:01.491Z,65.93
2023-05-15T01:28:04.598Z,65.93
2023-05-15T01:29:03.715Z,65.93
2023-05-15T01:30:10.380Z,66.02
2023-05-15T01:31:04.227Z,66.02
2023-05-15T01:32:03.494Z,66.02
2023-05-15T01:33:04.614Z,66.02
2023-05-15T01:34:02.266Z,66.02
2023-05-15T01:35:10.380Z,66.04
2023-05-15T01:36:06.199Z,66.04
2023-05-15T01:37:02.181Z,66.04
2023-05-15T01:38:01.526Z,66.04
2023-05-15T01:39:01.552Z,66.04
2023-05-15T01:40:02.113Z,66.04
2023-05-15T01:41:06.638Z,65.89
2023-05-15T01:42:06.616Z,65.89
2023-05-15T01:43:06.376Z,65.89
2023-05-15T01:44:01.493Z,65.89
2023-05-15T01:45:03.469Z,65.89
2023-05-15T01:46:01.046Z,65.80
2023-05-15T01:47:05.471Z,65.80
2023-05-15T01:48:01.059Z,65.80
2023-05-15T01:49:01.967Z,65.80
2023-05-15T01:50:01.539Z,65.80
2023-05-15T01:51:02.070Z,65.03
2023-05-15T01:52:10.412Z,65.03
2023-05-15T01:53:01.081Z,65.03
2023-05-15T01:54:02.347Z,65.03
2023-05-15T01:55:01.556Z,65.03
2023-05-15T01:56:01.572Z,64.50
2023-05-15T01:57:01.466Z,64.50
2023-05-15T01:58:00.580Z,64.50
2023-05-15T01:59:01.800Z,64.50
2023-05-15T02:00:00.980Z,64.50
2023-05-15T02:01:00.719Z,64.42
2023-05-15T02:02:01.169Z,64.42
2023-05-15T02:03:01.014Z,64.42
2023-05-15T02:04:01.162Z,64.42
2023-05-15T02:05:01.324Z,64.42
2023-05-15T02:06:01.263Z,64.06
2023-05-15T02:07:01.916Z,64.06
2023-05-15T02:08:02.142Z,64.06
2023-05-15T02:09:01.906Z,64.06
2023-05-15T02:10:00.972Z,64.06
2023-05-15T02:11:01.634Z,63.39
2023-05-15T02:12:01.353Z,63.39
2023-05-15T02:13:00.905Z,63.39
2023-05-15T02:14:00.769Z,63.39
2023-05-15T02:15:02.002Z,63.39
2023-05-15T02:16:00.616Z,62.77
2023-05-15T02:17:00.570Z,62.77
2023-05-15T02:18:00.612Z,62.77
2023-05-15T02:19:00.580Z,62.77
2023-05-15T02:20:00.554Z,62.77
2023-05-15T02:21:00.558Z,62.07
2023-05-15T02:22:00.538Z,62.07
2023-05-15T02:23:00.544Z,62.07
2023-05-15T02:24:00.580Z,62.07
2023-05-15T02:25:00.635Z,62.07
2023-05-15T02:26:10.372Z,61.64
2023-05-15T02:27:07.438Z,61.64
2023-05-15T02:28:03.005Z,61.64
2023-05-15T02:29:01.478Z,61.64
2023-05-15T02:30:00.498Z,61.64
2023-05-15T02:31:04.263Z,61.57
2023-05-15T02:32:01.568Z,61.57
2023-05-15T02:33:06.847Z,61.57
2023-05-15T02:34:08.057Z,61.57
2023-05-15T02:35:06.414Z,61.57
2023-05-15T02:36:04.084Z,61.69
2023-05-15T02:37:01.886Z,61.69
2023-05-15T02:38:02.501Z,61.69
2023-05-15T02:39:00.620Z,61.69
2023-05-15T02:40:01.797Z,61.69
2023-05-15T02:41:00.618Z,61.70
2023-05-15T02:42:00.658Z,61.70
2023-05-15T02:43:00.816Z,61.70
2023-05-15T02:44:00.605Z,61.70
2023-05-15T02:45:00.769Z,61.70
2023-05-15T02:46:01.183Z,61.53
2023-05-15T02:47:00.760Z,61.53
2023-05-15T02:48:01.290Z,61.53
2023-05-15T02:49:00.634Z,61.53
2023-05-15T02:50:01.454Z,61.53
2023-05-15T02:51:00.550Z,61.50
2023-05-15T02:52:00.565Z,61.50
2023-05-15T02:53:01.175Z,61.50
2023-05-15T02:54:00.562Z,61.50
2023-05-15T02:55:00.576Z,61.50
2023-05-15T02:56:00.570Z,61.38
2023-05-15T02:57:00.546Z,61.38
2023-05-15T02:58:01.338Z,61.38
2023-05-15T02:59:00.706Z,61.38
2023-05-15T03:00:00.858Z,61.38
2023-05-15T03:01:00.568Z,61.56
2023-05-15T03:02:00.616Z,61.56
2023-05-15T03:03:00.570Z,61.56
2023-05-15T03:04:00.513Z,61.56
2023-05-15T03:05:00.559Z,61.56
2023-05-15T03:06:00.547Z,61.63
2023-05-15T03:07:00.511Z,61.63
2023-05-15T03:08:00.581Z,61.63
2023-05-15T03:09:00.548Z,61.63
2023-05-15T03:10:00.522Z,61.63
2023-05-15T03:11:00.577Z,62.47
2023-05-15T03:12:00.623Z,62.47
2023-05-15T03:13:01.312Z,62.47
2023-05-15T03:14:00.524Z,62.47
2023-05-15T03:15:00.526Z,62.47
2023-05-15T03:16:00.586Z,63.33
2023-05-15T03:17:02.119Z,63.33
2023-05-15T03:18:00.597Z,63.33
2023-05-15T03:19:00.628Z,63.33
2023-05-15T03:20:00.542Z,63.33
2023-05-15T03:21:00.525Z,63.40
2023-05-15T03:22:00.639Z,63.40
2023-05-15T03:23:00.549Z,63.40
2023-05-15T03:24:00.562Z,63.40
2023-05-15T03:25:00.515Z,63.40
2023-05-15T03:26:00.525Z,63.23
2023-05-15T03:27:00.543Z,63.23
2023-05-15T03:28:00.517Z,63.23
2023-05-15T03:29:00.548Z,63.23
2023-05-15T03:30:00.550Z,63.23
2023-05-15T03:31:00.540Z,63.43
2023-05-15T03:32:00.522Z,63.43
2023-05-15T03:33:00.678Z,63.43
2023-05-15T03:34:00.517Z,63.43
2023-05-15T03:35:00.549Z,63.43
2023-05-15T03:36:00.522Z,63.33
2023-05-15T03:37:00.526Z,63.33
2023-05-15T03:38:00.538Z,63.33
2023-05-15T03:39:00.518Z,63.33
2023-05-15T03:40:00.575Z,63.33
2023-05-15T03:41:00.556Z,63.23
2023-05-15T03:42:00.543Z,63.23
2023-05-15T03:43:00.536Z,63.23
2023-05-15T03:44:00.572Z,63.23
2023-05-15T03:45:00.536Z,63.23
2023-05-15T03:46:00.529Z,63.10
2023-05-15T03:47:00.606Z,63.10
2023-05-15T03:48:00.648Z,63.10
2023-05-15T03:49:00.575Z,63.10
2023-05-15T03:50:00.555Z,63.10
2023-05-15T03:51:00.575Z,63.04
2023-05-15T03:52:00.567Z,63.04
2023-05-15T03:53:00.631Z,63.04
2023-05-15T03:54:00.559Z,63.04
2023-05-15T03:55:00.601Z,63.04
2023-05-15T03:56:00.558Z,62.72
2023-05-15T03:57:00.515Z,62.72
2023-05-15T03:58:00.753Z,62.72
2023-05-15T03:59:00.535Z,62.72
2023-05-15T04:00:00.621Z,62.72
2023-05-15T04:01:00.527Z,62.45
2023-05-15T04:02:04.182Z,62.45
2023-05-15T04:03:00.707Z,62.45
2023-05-15T04:04:00.528Z,62.45
2023-05-15T04:05:00.577Z,62.45
2023-05-15T04:06:00.572Z,62.28
2023-05-15T04:07:01.064Z,62.28
2023-05-15T04:08:00.552Z,62.28
2023-05-15T04:09:00.546Z,62.28
2023-05-15T04:10:00.596Z,62.28
2023-05-15T04:11:00.556Z,62.02
2023-05-15T04:12:00.536Z,62.02
2023-05-15T04:13:00.520Z,62.02
2023-05-15T04:14:00.525Z,62.02
2023-05-15T04:15:10.382Z,62.31
2023-05-15T04:16:00.575Z,62.31
2023-05-15T04:17:00.576Z,62.31
2023-05-15T04:18:00.558Z,62.31
2023-05-15T04:19:00.564Z,62.31
2023-05-15T04:20:00.534Z,62.31
2023-05-15T04:21:00.569Z,61.89
2023-05-15T04:22:00.513Z,61.89
2023-05-15T04:23:00.826Z,61.89
2023-05-15T04:24:00.531Z,61.89
2023-05-15T04:25:00.538Z,61.89
2023-05-15T04:26:00.526Z,62.32
2023-05-15T04:27:00.608Z,62.32
2023-05-15T04:28:00.588Z,62.32
2023-05-15T04:29:04.368Z,62.32
2023-05-15T04:30:00.549Z,62.32
2023-05-15T04:31:00.567Z,61.77
2023-05-15T04:32:00.559Z,61.77
2023-05-15T04:33:00.550Z,61.77
2023-05-15T04:34:00.520Z,61.77
2023-05-15T04:35:00.864Z,61.77
2023-05-15T04:36:00.577Z,62.15
2023-05-15T04:37:00.561Z,62.15
2023-05-15T04:38:00.560Z,62.15
2023-05-15T04:39:00.549Z,62.15
2023-05-15T04:40:00.542Z,62.15
2023-05-15T04:41:00.547Z,62.08
2023-05-15T04:42:00.520Z,62.08
2023-05-15T04:43:00.531Z,62.08
2023-05-15T04:44:00.657Z,62.08
2023-05-15T04:45:00.728Z,62.08
2023-05-15T04:46:00.559Z,62.08
2023-05-15T04:47:00.563Z,62.08
2023-05-15T04:48:00.704Z,62.08
2023-05-15T04:49:00.563Z,62.08
2023-05-15T04:50:00.550Z,62.08
2023-05-15T04:51:00.538Z,61.91
2023-05-15T04:52:00.542Z,61.91
2023-05-15T04:53:00.522Z,61.91
2023-05-15T04:54:00.519Z,61.91
2023-05-15T04:55:00.535Z,61.91
2023-05-15T04:56:00.522Z,61.55
2023-05-15T04:57:00.519Z,61.55
2023-05-15T04:58:00.557Z,61.55
2023-05-15T04:59:00.616Z,61.55
2023-05-15T05:00:00.678Z,61.55
2023-05-15T05:01:03.505Z,60.85
2023-05-15T05:02:01.014Z,60.85
2023-05-15T05:03:00.607Z,60.85
2023-05-15T05:04:00.666Z,60.85
2023-05-15T05:05:00.592Z,60.85
2023-05-15T05:06:00.535Z,60.89
2023-05-15T05:07:00.555Z,60.89
2023-05-15T05:08:00.532Z,60.89
2023-05-15T05:09:00.535Z,60.89
2023-05-15T05:10:00.747Z,60.89
2023-05-15T05:11:00.519Z,60.54
2023-05-15T05:12:00.533Z,60.54
2023-05-15T05:13:00.519Z,60.54
2023-05-15T05:14:00.576Z,60.54
2023-05-15T05:15:00.539Z,60.54
2023-05-15T05:16:00.574Z,60.35
2023-05-15T05:17:00.559Z,60.35
2023-05-15T05:18:00.629Z,60.35
2023-05-15T05:19:00.559Z,60.35
2023-05-15T05:20:00.695Z,60.35
2023-05-15T05:21:00.734Z,59.91
2023-05-15T05:22:01.125Z,59.91
2023-05-15T05:23:00.528Z,59.91
2023-05-15T05:24:00.521Z,59.91
2023-05-15T05:25:00.563Z,59.91
2023-05-15T05:26:00.536Z,59.03
2023-05-15T05:27:00.632Z,59.03
2023-05-15T05:28:00.517Z,59.03
2023-05-15T05:29:00.524Z,59.03
2023-05-15T05:30:00.560Z,59.03
2023-05-15T05:31:00.561Z,59.00
2023-05-15T05:32:00.833Z,59.00
2023-05-15T05:33:00.623Z,59.00
2023-05-15T05:34:00.820Z,59.00
2023-05-15T05:35:00.564Z,59.00
2023-05-15T05:36:00.591Z,58.78
2023-05-15T05:37:00.605Z,58.78
2023-05-15T05:38:00.568Z,58.78
2023-05-15T05:39:00.518Z,58.78
2023-05-15T05:40:00.526Z,58.78
2023-05-15T05:41:00.658Z,58.60
2023-05-15T05:42:00.527Z,58.60
2023-05-15T05:43:00.997Z,58.60
2023-05-15T05:44:00.581Z,58.60
2023-05-15T05:45:00.528Z,58.60
2023-05-15T05:46:00.864Z,58.83
2023-05-15T05:47:00.528Z,58.83
2023-05-15T05:48:00.655Z,58.83
2023-05-15T05:49:00.570Z,58.83
2023-05-15T05:50:00.560Z,58.83
2023-05-15T05:51:00.528Z,58.79
2023-05-15T05:52:04.079Z,58.79
2023-05-15T05:53:00.523Z,58.79
2023-05-15T05:54:00.602Z,58.79
2023-05-15T05:55:00.559Z,58.79
2023-05-15T05:56:00.525Z,58.13
2023-05-15T05:57:00.563Z,58.13
2023-05-15T05:58:01.291Z,58.13
2023-05-15T05:59:00.582Z,58.13
2023-05-15T06:00:00.576Z,58.13
2023-05-15T06:01:00.562Z,56.79
2023-05-15T06:02:00.591Z,56.79
2023-05-15T06:03:00.720Z,56.79
2023-05-15T06:04:00.770Z,56.79
2023-05-15T06:05:00.579Z,56.79
2023-05-15T06:06:00.558Z,56.46
2023-05-15T06:07:00.523Z,56.46
2023-05-15T06:08:00.530Z,56.46
2023-05-15T06:09:00.567Z,56.46
2023-05-15T06:10:00.803Z,56.46
2023-05-15T06:11:00.524Z,55.00
2023-05-15T06:12:00.578Z,55.00
2023-05-15T06:13:00.560Z,55.00
2023-05-15T06:14:00.569Z,55.00
2023-05-15T06:15:00.714Z,55.00
2023-05-15T06:16:00.589Z,54.22
2023-05-15T06:17:00.715Z,54.22
2023-05-15T06:18:00.610Z,54.22
2023-05-15T06:19:00.539Z,54.22
2023-05-15T06:20:00.559Z,54.22
2023-05-15T06:21:00.710Z,52.91
2023-05-15T06:22:00.552Z,52.91
2023-05-15T06:23:00.559Z,52.91
2023-05-15T06:24:00.596Z,52.91
2023-05-15T06:25:01.175Z,52.91
2023-05-15T06:26:00.654Z,51.91
2023-05-15T06:27:00.585Z,51.91
2023-05-15T06:28:00.576Z,51.91
2023-05-15T06:29:00.573Z,51.91
2023-05-15T06:30:00.632Z,51.91
2023-05-15T06:31:00.601Z,53.36
2023-05-15T06:32:00.773Z,53.36
2023-05-15T06:33:02.106Z,53.36
2023-05-15T06:34:00.588Z,53.36
2023-05-15T06:35:00.872Z,53.36
2023-05-15T06:36:00.863Z,52.61
2023-05-15T06:37:00.548Z,52.61
2023-05-15T06:38:00.582Z,52.61
2023-05-15T06:39:00.562Z,52.61
2023-05-15T06:40:00.583Z,52.61
2023-05-15T06:41:00.570Z,52.73
2023-05-15T06:42:00.572Z,52.73
2023-05-15T06:43:00.559Z,52.73
2023-05-15T06:44:00.593Z,52.73
2023-05-15T06:45:00.612Z,52.73
2023-05-15T06:46:00.700Z,52.73
2023-05-15T06:47:01.015Z,52.73
2023-05-15T06:48:01.994Z,52.73
2023-05-15T06:49:00.586Z,52.73
2023-05-15T06:50:00.811Z,52.73
2023-05-15T06:51:00.706Z,51.49
2023-05-15T06:52:00.603Z,51.49
2023-05-15T06:53:00.597Z,51.49
2023-05-15T06:54:00.596Z,51.49
2023-05-15T06:55:00.602Z,51.49
2023-05-15T06:56:00.563Z,51.33
2023-05-15T06:57:00.661Z,51.33
2023-05-15T06:58:00.957Z,51.33
2023-05-15T06:59:00.557Z,51.33
2023-05-15T07:00:00.602Z,51.33
2023-05-15T07:01:01.402Z,51.70
2023-05-15T07:02:01.099Z,51.70
2023-05-15T07:03:00.615Z,51.70
2023-05-15T07:04:00.630Z,51.70
2023-05-15T07:05:00.645Z,51.70
2023-05-15T07:06:00.640Z,50.63
2023-05-15T07:07:00.650Z,50.63
2023-05-15T07:08:00.612Z,50.63
2023-05-15T07:09:00.599Z,50.63
2023-05-15T07:10:00.620Z,50.63
2023-05-15T07:11:00.621Z,51.03
2023-05-15T07:12:00.604Z,51.03
2023-05-15T07:13:00.658Z,51.03
2023-05-15T07:14:00.623Z,51.03
2023-05-15T07:15:00.608Z,51.03
2023-05-15T07:16:01.446Z,50.46
2023-05-15T07:17:00.735Z,50.46
2023-05-15T07:18:00.957Z,50.46
2023-05-15T07:19:00.643Z,50.46
2023-05-15T07:20:00.653Z,50.46
2023-05-15T07:21:00.711Z,50.37
2023-05-15T07:22:03.124Z,50.37
2023-05-15T07:23:00.628Z,50.37
2023-05-15T07:24:00.777Z,50.37
2023-05-15T07:25:00.618Z,50.37
2023-05-15T07:26:00.637Z,50.11
2023-05-15T07:27:00.648Z,50.11
2023-05-15T07:28:00.624Z,50.11
2023-05-15T07:29:00.676Z,50.11
2023-05-15T07:30:01.243Z,50.11
2023-05-15T07:31:02.823Z,49.26
2023-05-15T07:32:00.694Z,49.26
2023-05-15T07:33:00.738Z,49.26
2023-05-15T07:34:00.605Z,49.26
2023-05-15T07:35:00.561Z,49.26
2023-05-15T07:36:00.636Z,48.77
2023-05-15T07:37:00.677Z,48.77
2023-05-15T07:38:00.604Z,48.77
2023-05-15T07:39:00.617Z,48.77
2023-05-15T07:40:00.724Z,48.77
2023-05-15T07:41:00.626Z,49.40
2023-05-15T07:42:00.613Z,49.40
2023-05-15T07:43:00.638Z,49.40
2023-05-15T07:44:00.621Z,49.40
2023-05-15T07:45:00.690Z,49.40
2023-05-15T07:46:00.670Z,48.27
2023-05-15T07:47:00.580Z,48.27
2023-05-15T07:48:10.433Z,48.27
2023-05-15T07:49:00.591Z,48.27
2023-05-15T07:50:00.858Z,48.27
2023-05-15T07:51:00.696Z,48.57
2023-05-15T07:52:00.530Z,48.57
2023-05-15T07:53:00.520Z,48.57
2023-05-15T07:54:00.538Z,48.57
2023-05-15T07:55:00.617Z,48.57
2023-05-15T07:56:00.610Z,48.31
2023-05-15T07:57:00.523Z,48.31
2023-05-15T07:58:00.544Z,48.31
2023-05-15T07:59:00.616Z,48.31
2023-05-15T08:00:00.661Z,48.31
2023-05-15T08:01:00.617Z,48.96
2023-05-15T08:02:00.763Z,48.96
2023-05-15T08:03:00.831Z,48.96
2023-05-15T08:04:00.678Z,48.96
2023-05-15T08:05:00.601Z,48.96
2023-05-15T08:06:00.545Z,47.83
2023-05-15T08:07:00.573Z,47.83
2023-05-15T08:08:00.686Z,47.83
2023-05-15T08:09:00.523Z,47.83
2023-05-15T08:10:00.710Z,47.83
2023-05-15T08:11:00.587Z,47.63
2023-05-15T08:12:10.380Z,47.63
2023-05-15T08:13:00.560Z,47.63
2023-05-15T08:14:00.752Z,47.63
2023-05-15T08:15:00.573Z,47.63
2023-05-15T08:16:00.671Z,46.35
2023-05-15T08:17:00.575Z,46.35
2023-05-15T08:18:00.620Z,46.35
2023-05-15T08:19:00.641Z,46.35
2023-05-15T08:20:00.549Z,46.35
2023-05-15T08:21:01.301Z,45.65
2023-05-15T08:22:00.571Z,45.65
2023-05-15T08:23:00.748Z,45.65
2023-05-15T08:24:00.527Z,45.65
2023-05-15T08:25:00.651Z,45.65
2023-05-15T08:26:00.533Z,46.42
2023-05-15T08:27:00.600Z,46.42
2023-05-15T08:28:00.921Z,46.42
2023-05-15T08:29:00.724Z,46.42
2023-05-15T08:30:00.562Z,46.42
2023-05-15T08:31:00.592Z,45.53
2023-05-15T08:32:00.563Z,45.53
2023-05-15T08:33:00.566Z,45.53
2023-05-15T08:34:00.592Z,45.53
2023-05-15T08:35:00.551Z,45.53
2023-05-15T08:36:00.653Z,45.58
2023-05-15T08:37:00.585Z,45.58
2023-05-15T08:38:00.528Z,45.58
2023-05-15T08:39:00.651Z,45.58
2023-05-15T08:40:00.564Z,45.58
2023-05-15T08:41:05.379Z,45.83
2023-05-15T08:42:01.474Z,45.83
2023-05-15T08:43:02.460Z,45.83
2023-05-15T08:44:02.277Z,45.83
2023-05-15T08:45:00.671Z,45.83
2023-05-15T08:46:00.947Z,44.98
2023-05-15T08:47:00.637Z,44.98
2023-05-15T08:48:01.094Z,44.98
2023-05-15T08:49:03.386Z,44.98
2023-05-15T08:50:00.724Z,44.98
2023-05-15T08:51:00.731Z,45.48
2023-05-15T08:52:00.645Z,45.48
2023-05-15T08:53:00.809Z,45.48
2023-05-15T08:54:00.873Z,45.48
2023-05-15T08:55:01.022Z,45.48
2023-05-15T08:56:00.728Z,44.56
2023-05-15T08:57:01.393Z,44.56
2023-05-15T08:58:00.565Z,44.56
2023-05-15T08:59:00.738Z,44.56
2023-05-15T09:00:01.592Z,44.56
2023-05-15T09:01:00.545Z,43.68
2023-05-15T09:02:00.800Z,43.68
2023-05-15T09:03:01.038Z,43.68
2023-05-15T09:04:00.825Z,43.68
2023-05-15T09:05:00.570Z,43.68
2023-05-15T09:06:00.748Z,43.90
2023-05-15T09:07:02.033Z,43.90
2023-05-15T09:08:02.933Z,43.90
2023-05-15T09:09:00.946Z,43.90
2023-05-15T09:10:01.186Z,43.90
2023-05-15T09:11:01.637Z,43.37
2023-05-15T09:12:01.332Z,43.37
2023-05-15T09:13:01.203Z,43.37
2023-05-15T09:14:00.581Z,43.37
2023-05-15T09:15:08.712Z,42.66
2023-05-15T09:16:00.572Z,42.66
2023-05-15T09:17:00.666Z,42.66
2023-05-15T09:18:01.017Z,42.66
2023-05-15T09:19:00.883Z,42.66
2023-05-15T09:20:01.130Z,42.66
2023-05-15T09:21:10.385Z,41.26
2023-05-15T09:22:10.392Z,41.26
2023-05-15T09:23:01.705Z,41.26
2023-05-15T09:24:10.484Z,41.26
2023-05-15T09:25:00.586Z,41.26
2023-05-15T09:26:00.588Z,42.09
2023-05-15T09:27:02.258Z,42.09
2023-05-15T09:28:00.567Z,42.09
2023-05-15T09:29:01.185Z,42.09
2023-05-15T09:30:08.278Z,42.31
2023-05-15T09:31:02.625Z,42.31
2023-05-15T09:32:05.104Z,42.31
2023-05-15T09:33:01.201Z,42.31
2023-05-15T09:34:00.821Z,42.31
2023-05-15T09:35:00.534Z,42.31
2023-05-15T09:36:01.269Z,41.65
2023-05-15T09:37:01.771Z,41.65
2023-05-15T09:38:01.239Z,41.65
2023-05-15T09:39:00.571Z,41.65
2023-05-15T09:40:08.553Z,41.42
2023-05-15T09:41:01.434Z,41.42
2023-05-15T09:42:08.805Z,41.42
2023-05-15T09:43:00.605Z,41.42
2023-05-15T09:44:00.732Z,41.42
2023-05-15T09:45:00.560Z,41.42
2023-05-15T09:46:00.619Z,43.16
2023-05-15T09:47:01.173Z,43.16
2023-05-15T09:48:04.309Z,43.16
2023-05-15T09:49:00.570Z,43.16
2023-05-15T09:50:00.870Z,43.16
2023-05-15T09:51:00.852Z,42.63
2023-05-15T09:52:00.586Z,42.63
2023-05-15T09:53:01.257Z,42.63
2023-05-15T09:54:00.572Z,42.63
2023-05-15T09:55:00.600Z,42.63
2023-05-15T09:56:01.540Z,43.46
2023-05-15T09:57:08.650Z,43.46
2023-05-15T09:58:04.541Z,43.46
2023-05-15T09:59:00.734Z,43.46
2023-05-15T10:00:00.784Z,43.46
2023-05-15T10:01:00.906Z,43.02
2023-05-15T10:02:00.790Z,43.02
2023-05-15T10:03:01.588Z,43.02
2023-05-15T10:04:01.517Z,43.02
2023-05-15T10:05:00.817Z,43.02
2023-05-15T10:06:00.832Z,43.45
2023-05-15T10:07:00.744Z,43.45
2023-05-15T10:08:01.202Z,43.45
2023-05-15T10:09:01.530Z,43.45
2023-05-15T10:10:01.487Z,43.45
2023-05-15T10:11:00.748Z,43.97
2023-05-15T10:12:01.197Z,43.97
2023-05-15T10:13:00.722Z,43.97
2023-05-15T10:14:01.399Z,43.97
2023-05-15T10:15:00.850Z,43.97
2023-05-15T10:16:01.482Z,43.29
2023-05-15T10:17:00.788Z,43.29
2023-05-15T10:18:02.729Z,43.29
2023-05-15T10:19:04.969Z,43.29
2023-05-15T10:20:00.938Z,43.29
2023-05-15T10:21:00.821Z,43.71
2023-05-15T10:22:01.070Z,43.71
2023-05-15T10:23:02.869Z,43.71
2023-05-15T10:24:01.631Z,43.71
2023-05-15T10:25:05.668Z,43.71
2023-05-15T10:26:03.124Z,42.68
2023-05-15T10:27:01.030Z,42.68
2023-05-15T10:28:01.231Z,42.68
2023-05-15T10:29:01.066Z,42.68
2023-05-15T10:30:01.870Z,42.68
2023-05-15T10:31:00.920Z,41.11
2023-05-15T10:32:00.557Z,41.11
2023-05-15T10:33:01.246Z,41.11
2023-05-15T10:34:01.202Z,41.11
2023-05-15T10:35:01.728Z,41.11
2023-05-15T10:36:00.900Z,42.04
2023-05-15T10:37:00.934Z,42.04
2023-05-15T10:38:03.022Z,42.04
2023-05-15T10:39:01.212Z,42.04
2023-05-15T10:40:00.705Z,42.04
2023-05-15T10:41:15.921Z,41.41
2023-05-15T10:42:01.222Z,41.41
2023-05-15T10:43:00.875Z,41.41
2023-05-15T10:44:00.990Z,41.41
2023-05-15T10:45:01.029Z,41.41
2023-05-15T10:46:01.855Z,41.85
2023-05-15T10:47:01.090Z,41.85
2023-05-15T10:48:01.740Z,41.85
2023-05-15T10:49:00.565Z,41.85
2023-05-15T10:50:00.578Z,41.85
2023-05-15T10:51:00.557Z,41.18
2023-05-15T10:52:01.013Z,41.18
2023-05-15T10:53:00.953Z,41.18
2023-05-15T10:54:00.596Z,41.18
2023-05-15T10:55:00.556Z,41.18
2023-05-15T10:56:01.378Z,39.99
2023-05-15T10:57:00.562Z,39.99
2023-05-15T10:58:00.580Z,39.99
2023-05-15T10:59:08.768Z,39.99
2023-05-15T11:00:00.594Z,39.99
2023-05-15T11:01:00.572Z,40.04
2023-05-15T11:02:10.381Z,40.04
2023-05-15T11:03:00.577Z,40.04
2023-05-15T11:04:04.718Z,40.04
2023-05-15T11:05:01.374Z,40.04
2023-05-15T11:06:08.898Z,40.03
2023-05-15T11:07:10.389Z,40.03
2023-05-15T11:08:10.430Z,40.03
2023-05-15T11:09:10.533Z,40.03
2023-05-15T11:10:10.368Z,39.61
2023-05-15T11:11:00.530Z,39.61
2023-05-15T11:12:01.646Z,39.61
2023-05-15T11:13:01.101Z,39.61
2023-05-15T11:14:03.723Z,39.61
2023-05-15T11:15:00.548Z,39.61
2023-05-15T11:16:00.542Z,39.55
2023-05-15T11:17:01.794Z,39.55
2023-05-15T11:18:01.176Z,39.55
2023-05-15T11:19:00.577Z,39.55
2023-05-15T11:20:00.629Z,39.55
2023-05-15T11:21:00.468Z,39.94
2023-05-15T11:22:00.472Z,39.94
2023-05-15T11:23:00.706Z,39.94
2023-05-15T11:24:03.746Z,39.94
2023-05-15T11:25:02.893Z,39.94
2023-05-15T11:26:00.552Z,38.62
2023-05-15T11:27:01.240Z,38.62
2023-05-15T11:28:01.929Z,38.62
2023-05-15T11:29:10.396Z,38.62
2023-05-15T11:30:01.991Z,38.62
2023-05-15T11:31:04.962Z,38.82
2023-05-15T11:32:00.568Z,38.82
2023-05-15T11:33:00.533Z,38.82
2023-05-15T11:34:03.961Z,38.82
2023-05-15T11:35:00.850Z,38.82
2023-05-15T11:36:03.623Z,38.95
2023-05-15T11:37:00.563Z,38.95
2023-05-15T11:38:01.898Z,38.95
2023-05-15T11:39:00.577Z,38.95
2023-05-15T11:40:00.552Z,38.95
2023-05-15T11:41:01.356Z,38.35
2023-05-15T11:42:09.180Z,38.35
2023-05-15T11:43:02.024Z,38.35
2023-05-15T11:44:00.541Z,38.35
2023-05-15T11:45:00.730Z,38.35
2023-05-15T11:46:05.039Z,37.79
2023-05-15T11:47:00.600Z,37.79
2023-05-15T11:48:01.615Z,37.79
2023-05-15T11:49:00.897Z,37.79
2023-05-15T11:50:02.890Z,37.79
2023-05-15T11:51:01.288Z,36.41
2023-05-15T11:52:00.580Z,36.41
2023-05-15T11:53:01.347Z,36.41
2023-05-15T11:54:01.351Z,36.41
2023-05-15T11:55:00.558Z,36.41
2023-05-15T11:56:00.572Z,36.80
2023-05-15T11:57:00.517Z,36.80
2023-05-15T11:58:00.849Z,36.80
2023-05-15T11:59:00.608Z,36.80
2023-05-15T12:00:00.585Z,36.80
2023-05-15T12:01:00.523Z,37.26
2023-05-15T12:02:00.512Z,37.26
2023-05-15T12:03:00.667Z,37.26
2023-05-15T12:04:00.801Z,37.26
2023-05-15T12:05:00.588Z,37.26
2023-05-15T12:06:01.443Z,38.27
2023-05-15T12:07:03.019Z,38.27
2023-05-15T12:08:00.838Z,38.27
2023-05-15T12:09:00.562Z,38.27
2023-05-15T12:10:00.933Z,38.27
2023-05-15T12:11:01.602Z,37.93
2023-05-15T12:12:00.549Z,37.93
2023-05-15T12:13:00.732Z,37.93
2023-05-15T12:14:00.607Z,37.93
2023-05-15T12:15:00.551Z,37.93
2023-05-15T12:16:01.644Z,37.17
2023-05-15T12:17:00.891Z,37.17
2023-05-15T12:18:02.424Z,37.17
2023-05-15T12:19:00.670Z,37.17
2023-05-15T12:20:00.751Z,37.17
2023-05-15T12:21:00.635Z,36.62
2023-05-15T12:22:03.385Z,36.62
2023-05-15T12:23:02.196Z,36.62
2023-05-15T12:25:00.548Z,36.62
2023-05-15T12:26:01.563Z,36.75
2023-05-15T12:27:00.556Z,36.75
2023-05-15T12:28:01.476Z,36.75
2023-05-15T12:29:00.675Z,36.75
2023-05-15T12:30:01.013Z,36.75
2023-05-15T12:31:00.574Z,36.61
2023-05-15T12:32:00.581Z,36.61
2023-05-15T12:33:03.024Z,36.61
2023-05-15T12:34:00.571Z,36.61
2023-05-15T12:35:00.830Z,36.61
2023-05-15T12:36:01.948Z,36.35
2023-05-15T12:37:01.525Z,36.35
2023-05-15T12:38:04.190Z,36.35
2023-05-15T12:39:04.527Z,36.35
2023-05-15T12:40:01.582Z,36.35
2023-05-15T12:41:00.534Z,37.27
2023-05-15T12:42:00.527Z,37.27
2023-05-15T12:43:04.863Z,37.27
2023-05-15T12:44:00.526Z,37.27
2023-05-15T12:45:00.596Z,37.27
2023-05-15T12:46:00.821Z,36.23
2023-05-15T12:47:00.522Z,36.23
2023-05-15T12:48:00.798Z,36.23
2023-05-15T12:49:00.584Z,36.23
2023-05-15T12:50:00.602Z,36.23
2023-05-15T12:51:04.559Z,36.56
2023-05-15T12:52:06.471Z,36.56
2023-05-15T12:53:01.938Z,36.56